IN-0002 weather

Tawang Air Force Station
Arunachal Pradesh, India

Public forecast

Using degrees Celsius for public forecast. Weather courtesy of forecast.io.

METAR (pilot weather report)

Closest report is Lokpriya Gopinath Bordoloi International Airport, 90.4 nm (167.4 km) S. Retrieved 2019/09/21 01:30 UTC (23 minutes ago):

VEGT 210130Z 00000KT 3000 BR FEW018 SCT100 28/26 Q1009 BECMG 4000 BR

TAF (pilot weather forecast)

Forecast is more than 12 hours old.

Closest forecast is Tezpur Airport, 71.7 nm (132.7 km) SE. Retrieved 2019/09/20 06:30 UTC (19 hours ago):

TAF VETZ 200330Z 2006/2018 07005KT 6000 FEW030 SCT150 TEMPO 2008/2010 FEW020 FEW030TCU SCT150 TEMPO 2011/2013 -TS SCT020 FEW030CB BKN100